createdAt,value
2022-09-20T00:00:02.899Z,10.08
2022-09-20T00:05:04.306Z,10.54
2022-09-20T00:10:05.646Z,10.09
2022-09-20T00:15:06.874Z,10.04
2022-09-20T00:20:08.289Z,10.17
2022-09-20T00:25:09.559Z,10.07
2022-09-20T00:30:10.814Z,10.00
2022-09-20T00:35:12.042Z,10.27
2022-09-20T00:40:13.328Z,10.38
2022-09-20T00:45:14.583Z,10.45
2022-09-20T00:50:15.864Z,10.76
2022-09-20T00:55:17.110Z,10.26
2022-09-20T01:00:18.330Z,10.31
2022-09-20T01:05:19.531Z,10.19
2022-09-20T01:10:20.745Z,10.50
2022-09-20T01:15:23.250Z,10.33
2022-09-20T01:20:24.533Z,10.26
2022-09-20T01:25:25.765Z,10.41
2022-09-20T01:30:27.099Z,10.10
2022-09-20T01:35:28.784Z,10.01
2022-09-20T01:40:30.095Z,10.20
2022-09-20T01:45:31.511Z,10.27
2022-09-20T01:50:32.864Z,10.42
2022-09-20T01:55:34.093Z,10.62
2022-09-20T02:00:36.381Z,10.71
2022-09-20T02:05:37.623Z,10.99
2022-09-20T02:10:38.897Z,11.06
2022-09-20T02:15:41.985Z,11.08
2022-09-20T02:20:43.320Z,11.12
2022-09-20T02:25:44.583Z,11.07
2022-09-20T02:30:45.814Z,11.23
2022-09-20T02:35:47.047Z,11.39
2022-09-20T02:40:48.290Z,11.37
2022-09-20T02:45:49.613Z,11.23
2022-09-20T02:50:50.927Z,11.15
2022-09-20T02:55:52.215Z,11.15
2022-09-20T03:00:54.040Z,11.44
2022-09-20T03:05:55.378Z,11.13
2022-09-20T03:10:56.665Z,11.31
2022-09-20T03:15:57.967Z,11.15
2022-09-20T03:20:59.519Z,10.65
2022-09-20T03:26:00.745Z,11.05
2022-09-20T03:31:02.075Z,11.13
2022-09-20T03:36:03.379Z,11.23
2022-09-20T03:41:04.659Z,11.26
2022-09-20T03:46:06.029Z,11.40
2022-09-20T03:51:07.437Z,11.20
2022-09-20T03:56:09.155Z,10.96
2022-09-20T04:01:10.466Z,10.78
2022-09-20T04:06:11.737Z,10.86
2022-09-20T04:11:13.587Z,10.36
2022-09-20T04:16:14.982Z,10.34
2022-09-20T04:21:17.092Z,10.05
2022-09-20T04:26:18.370Z,10.44
2022-09-20T04:31:20.925Z,10.81
2022-09-20T04:36:31.571Z,11.00
2022-09-20T04:41:34.473Z,11.06
2022-09-20T04:46:35.829Z,11.16
2022-09-20T04:51:37.069Z,11.37
2022-09-20T04:56:38.325Z,11.44
2022-09-20T05:01:39.864Z,11.63
2022-09-20T05:06:41.175Z,11.38
2022-09-20T05:11:46.983Z,11.33
2022-09-20T05:16:48.233Z,10.82
2022-09-20T05:21:50.086Z,11.07
2022-09-20T05:26:51.336Z,11.37
2022-09-20T05:31:52.638Z,11.22
2022-09-20T05:36:54.730Z,10.64
2022-09-20T05:41:56.074Z,10.77
2022-09-20T05:46:57.318Z,10.74
2022-09-20T05:51:58.581Z,11.06
2022-09-20T05:56:59.790Z,11.31
2022-09-20T06:02:01.073Z,11.50
2022-09-20T06:07:02.351Z,11.50
2022-09-20T06:12:03.590Z,11.52
2022-09-20T06:17:04.823Z,11.67
2022-09-20T06:22:06.058Z,11.23
2022-09-20T06:27:08.631Z,11.24
2022-09-20T06:32:10.995Z,11.06
2022-09-20T06:37:30.984Z,10.71
2022-09-20T06:42:32.250Z,10.78
2022-09-20T06:47:38.023Z,10.86
2022-09-20T06:52:39.993Z,11.09
2022-09-20T06:57:41.239Z,10.78
2022-09-20T07:02:43.213Z,11.22
2022-09-20T07:07:44.847Z,11.09
2022-09-20T07:12:46.781Z,11.24
2022-09-20T07:17:49.447Z,10.92
2022-09-20T07:22:50.778Z,11.12
2022-09-20T07:27:52.128Z,11.76
2022-09-20T07:32:53.647Z,12.07
2022-09-20T07:37:54.897Z,11.40
2022-09-20T07:42:56.379Z,11.06
2022-09-20T07:47:58.150Z,11.66
2022-09-20T07:52:59.436Z,12.02
2022-09-20T07:58:00.738Z,11.95
2022-09-20T08:03:02.221Z,11.62
2022-09-20T08:08:03.473Z,11.50
2022-09-20T08:18:28.203Z,11.48
2022-09-20T08:23:29.462Z,11.76
2022-09-20T08:28:31.511Z,11.63
2022-09-20T08:33:32.815Z,12.08
2022-09-20T08:43:56.232Z,12.11
2022-09-20T08:48:57.631Z,11.96
2022-09-20T08:53:58.885Z,11.93
2022-09-20T08:59:00.245Z,12.43
2022-09-20T09:04:01.504Z,12.70
2022-09-20T09:09:02.855Z,12.64
2022-09-20T09:14:04.730Z,12.29
2022-09-20T09:19:06.133Z,12.07
2022-09-20T09:24:09.799Z,12.60
2022-09-20T09:29:11.127Z,13.15
2022-09-20T09:34:12.524Z,12.71
2022-09-20T09:39:13.760Z,12.88
2022-09-20T09:44:15.610Z,13.39
2022-09-20T09:49:17.192Z,13.45
2022-09-20T09:54:19.775Z,13.85
2022-09-20T09:59:21.055Z,13.86
2022-09-20T10:04:22.372Z,13.44
2022-09-20T10:09:23.638Z,13.17
2022-09-20T10:14:24.861Z,13.03
2022-09-20T10:19:26.104Z,13.43
2022-09-20T10:24:31.017Z,13.38
2022-09-20T10:29:32.506Z,12.81
2022-09-20T10:34:35.459Z,12.36
2022-09-20T10:39:36.787Z,12.41
2022-09-20T10:44:38.154Z,12.39
2022-09-20T10:49:39.396Z,13.38
2022-09-20T10:54:40.708Z,14.59
2022-09-20T10:59:42.240Z,14.62
2022-09-20T11:04:47.102Z,13.75
2022-09-20T11:09:48.366Z,14.69
2022-09-20T11:14:50.043Z,14.70
2022-09-20T11:19:51.345Z,14.00
2022-09-20T11:24:52.611Z,14.12
2022-09-20T11:29:53.842Z,14.54
2022-09-20T11:34:55.717Z,15.67
2022-09-20T11:39:57.115Z,15.60
2022-09-20T11:44:58.431Z,14.85
2022-09-20T11:49:59.762Z,13.94
2022-09-20T11:55:01.130Z,13.10
2022-09-20T12:00:07.436Z,12.91
2022-09-20T12:05:08.674Z,12.71
2022-09-20T12:10:10.037Z,13.26
2022-09-20T12:15:11.315Z,14.45
2022-09-20T12:20:12.944Z,13.54
2022-09-20T12:25:14.261Z,15.30
2022-09-20T12:30:16.800Z,15.72
2022-09-20T12:35:18.117Z,16.02
2022-09-20T12:40:19.402Z,15.38
2022-09-20T12:45:20.681Z,16.08
2022-09-20T12:50:40.669Z,16.61
2022-09-20T12:55:45.440Z,16.47
2022-09-20T13:00:47.121Z,16.98
2022-09-20T13:05:48.730Z,17.08
2022-09-20T13:10:50.319Z,16.22
2022-09-20T13:15:52.416Z,15.46
2022-09-20T13:20:54.010Z,14.58
2022-09-20T13:25:56.066Z,13.82
2022-09-20T13:30:57.328Z,13.68
2022-09-20T13:35:58.765Z,13.85
2022-09-20T13:41:00.703Z,13.72
2022-09-20T13:46:02.004Z,14.02
2022-09-20T13:51:03.330Z,13.76
2022-09-20T13:56:04.547Z,13.48
2022-09-20T14:01:05.850Z,13.58
2022-09-20T14:06:07.134Z,14.07
2022-09-20T14:11:08.367Z,15.64
2022-09-20T14:16:09.647Z,17.43
2022-09-20T14:21:11.122Z,17.33
2022-09-20T14:26:12.365Z,17.89
2022-09-20T14:31:13.711Z,18.35
2022-09-20T14:36:15.722Z,18.99
2022-09-20T14:41:16.990Z,19.43
2022-09-20T14:46:18.302Z,18.63
2022-09-20T14:51:21.391Z,18.54
2022-09-20T14:56:22.611Z,17.55
2022-09-20T15:01:24.360Z,17.94
2022-09-20T15:06:25.710Z,17.79
2022-09-20T15:11:29.360Z,16.04
2022-09-20T15:16:30.686Z,16.38
2022-09-20T15:21:32.247Z,16.32
2022-09-20T15:26:34.169Z,15.60
2022-09-20T15:31:35.573Z,15.40
2022-09-20T15:36:36.908Z,16.07
2022-09-20T15:41:38.134Z,15.42
2022-09-20T15:46:39.491Z,15.95
2022-09-20T15:51:40.711Z,16.70
2022-09-20T15:56:41.996Z,16.60
2022-09-20T16:01:43.234Z,16.77
2022-09-20T16:06:44.472Z,16.11
2022-09-20T16:11:45.748Z,16.16
2022-09-20T16:16:47.005Z,15.89
2022-09-20T16:21:53.593Z,15.59
2022-09-20T16:26:58.018Z,15.53
2022-09-20T16:31:59.657Z,15.10
2022-09-20T16:37:01.006Z,14.82
2022-09-20T16:42:03.632Z,14.63
2022-09-20T16:47:08.092Z,14.61
2022-09-20T16:52:09.448Z,14.28
2022-09-20T16:57:10.695Z,13.98
2022-09-20T17:02:12.309Z,13.73
2022-09-20T17:07:13.569Z,13.50
2022-09-20T17:12:18.746Z,13.50
2022-09-20T17:17:22.508Z,13.70
2022-09-20T17:22:23.755Z,13.68
2022-09-20T17:27:25.018Z,13.51
2022-09-20T17:32:26.335Z,13.10
2022-09-20T17:37:27.905Z,13.22
2022-09-20T17:42:30.247Z,13.32
2022-09-20T17:47:31.576Z,13.47
2022-09-20T17:52:32.796Z,13.45
2022-09-20T17:57:34.057Z,13.00
2022-09-20T18:02:35.298Z,12.78
2022-09-20T18:07:36.552Z,12.57
2022-09-20T18:12:38.161Z,12.69
2022-09-20T18:17:39.456Z,12.94
2022-09-20T18:22:40.693Z,12.94
2022-09-20T18:27:42.277Z,12.73
2022-09-20T18:32:44.415Z,12.60
2022-09-20T18:37:45.648Z,12.74
2022-09-20T18:42:46.886Z,12.59
2022-09-20T18:47:48.136Z,11.73
2022-09-20T18:52:51.176Z,12.20
2022-09-20T18:57:52.440Z,12.35
2022-09-20T19:02:53.683Z,12.36
2022-09-20T19:07:54.947Z,12.41
2022-09-20T19:12:56.157Z,11.96
2022-09-20T19:17:57.914Z,12.26
2022-09-20T19:22:59.135Z,11.96
2022-09-20T19:28:00.377Z,12.10
2022-09-20T19:33:02.856Z,11.76
2022-09-20T19:38:04.367Z,11.88
2022-09-20T19:43:05.627Z,11.72
2022-09-20T19:48:06.902Z,11.72
2022-09-20T19:53:08.183Z,11.73
2022-09-20T19:58:09.456Z,11.57
2022-09-20T20:03:10.755Z,10.98
2022-09-20T20:08:12.058Z,11.17
2022-09-20T20:13:33.249Z,11.32
2022-09-20T20:18:34.519Z,11.16
2022-09-20T20:23:35.810Z,10.89
2022-09-20T20:28:37.269Z,11.22
2022-09-20T20:33:38.540Z,10.83
2022-09-20T20:38:40.183Z,10.61
2022-09-20T20:43:41.433Z,10.77
2022-09-20T20:48:42.654Z,10.80
2022-09-20T20:53:47.444Z,10.85
2022-09-20T20:58:48.690Z,11.01
2022-09-20T21:03:49.907Z,10.91
2022-09-20T21:08:51.177Z,10.54
2022-09-20T21:13:52.427Z,10.38
2022-09-20T21:18:53.848Z,10.32
2022-09-20T21:23:55.138Z,10.30
2022-09-20T21:28:59.074Z,9.96
2022-09-20T21:34:00.307Z,9.95
2022-09-20T21:39:01.506Z,10.14
2022-09-20T21:44:02.727Z,10.14
2022-09-20T21:49:08.487Z,10.27
2022-09-20T21:54:09.714Z,10.23
2022-09-20T21:59:11.067Z,10.10
2022-09-20T22:04:12.288Z,9.81
2022-09-20T22:09:13.587Z,9.79
2022-09-20T22:14:14.797Z,9.83
2022-09-20T22:19:16.854Z,9.99
2022-09-20T22:24:18.142Z,9.91
2022-09-20T22:29:19.482Z,9.55
2022-09-20T22:34:20.768Z,9.57
2022-09-20T22:39:22.038Z,9.46
2022-09-20T22:44:23.297Z,9.45
2022-09-20T22:49:24.519Z,9.54
2022-09-20T22:54:26.357Z,9.65
2022-09-20T22:59:27.558Z,9.59
2022-09-20T23:04:28.817Z,9.66
2022-09-20T23:09:30.070Z,9.58
2022-09-20T23:14:31.270Z,9.50
2022-09-20T23:19:32.469Z,9.60
2022-09-20T23:24:33.726Z,9.61
2022-09-20T23:29:34.992Z,9.54
2022-09-20T23:34:36.289Z,9.33
2022-09-20T23:39:37.575Z,9.16
2022-09-20T23:44:39.529Z,9.33
2022-09-20T23:49:41.222Z,9.34
2022-09-20T23:54:42.565Z,9.08
2022-09-20T23:59:43.915Z,8.95
